sensor_id;sensor_type;location;lat;lon;timestamp;pressure;altitude;pressure_sealevel;temperature;humidity
22938;BME280;11634;42.734;23.298;2023-06-22T12:05:01;95642.41;;;29.95;67.79
22938;BME280;11634;42.734;23.298;2023-06-22T12:07:30;95640.97;;;29.76;71.27
22938;BME280;11634;42.734;23.298;2023-06-22T12:09:56;95662.16;;;29.45;73.88
22938;BME280;11634;42.734;23.298;2023-06-22T12:12:21;95665.56;;;29.40;79.31
22938;BME280;11634;42.734;23.298;2023-06-22T12:14:47;95648.72;;;29.06;83.39
22938;BME280;11634;42.734;23.298;2023-06-22T12:17:12;95657.03;;;28.59;100.00
22938;BME280;11634;42.734;23.298;2023-06-22T12:19:39;95676.28;;;27.92;100.00
22938;BME280;11634;42.734;23.298;2023-06-22T12:22:06;95677.41;;;27.26;100.00
22938;BME280;11634;42.734;23.298;2023-06-22T12:24:39;95680.88;;;26.13;100.00
22938;BME280;11634;42.734;23.298;2023-06-22T12:27:05;95703.94;;;25.40;100.00
22938;BME280;11634;42.734;23.298;2023-06-22T12:29:31;95689.69;;;24.46;100.00
22938;BME280;11634;42.734;23.298;2023-06-22T12:31:57;95693.00;;;24.22;100.00
22938;BME280;11634;42.734;23.298;2023-06-22T12:34:23;95677.44;;;24.00;100.00
22938;BME280;11634;42.734;23.298;2023-06-22T12:36:48;95685.22;;;24.14;100.00
22938;BME280;11634;42.734;23.298;2023-06-22T14:09:39;95730.25;;;25.67;100.00
22938;BME280;11634;42.734;23.298;2023-06-22T14:12:06;95708.63;;;25.82;100.00
22938;BME280;11634;42.734;23.298;2023-06-22T14:14:35;95670.88;;;25.41;100.00
22938;BME280;11634;42.734;23.298;2023-06-22T14:17:07;95687.47;;;25.06;100.00
22938;BME280;11634;42.734;23.298;2023-06-22T14:19:32;95658.31;;;24.61;100.00
22938;BME280;11634;42.734;23.298;2023-06-22T14:21:58;95708.34;;;25.22;100.00
22938;BME280;11634;42.734;23.298;2023-06-22T14:24:24;95727.72;;;25.41;100.00
22938;BME280;11634;42.734;23.298;2023-06-22T14:26:49;95702.13;;;25.34;100.00
22938;BME280;11634;42.734;23.298;2023-06-22T14:29:15;95706.75;;;25.51;100.00
22938;BME280;11634;42.734;23.298;2023-06-22T14:31:44;95710.69;;;25.80;100.00
22938;BME280;11634;42.734;23.298;2023-06-22T14:34:16;95719.22;;;26.19;100.00
22938;BME280;11634;42.734;23.298;2023-06-22T14:36:42;95716.78;;;26.17;100.00
22938;BME280;11634;42.734;23.298;2023-06-22T14:39:09;95731.75;;;25.94;100.00
22938;BME280;11634;42.734;23.298;2023-06-22T14:41:34;95712.41;;;25.68;100.00
22938;BME280;11634;42.734;23.298;2023-06-22T14:44:00;95730.34;;;25.92;100.00
22938;BME280;11634;42.734;23.298;2023-06-22T14:46:27;95729.81;;;25.77;100.00
22938;BME280;11634;42.734;23.298;2023-06-22T14:48:53;95729.13;;;25.88;100.00
22938;BME280;11634;42.734;23.298;2023-06-22T14:51:19;95724.63;;;25.82;100.00
22938;BME280;11634;42.734;23.298;2023-06-22T14:53:45;95729.19;;;25.75;100.00
22938;BME280;11634;42.734;23.298;2023-06-22T14:56:14;95679.84;;;25.22;100.00
22938;BME280;11634;42.734;23.298;2023-06-22T14:59:12;54402.53;;;-139.56;100.00
22938;BME280;11634;42.734;23.298;2023-06-22T15:01:38;54402.53;;;-139.56;100.00
22938;BME280;11634;42.734;23.298;2023-06-22T15:04:03;54402.53;;;-139.56;100.00
22938;BME280;11634;42.734;23.298;2023-06-22T15:06:29;54402.53;;;-139.56;100.00
22938;BME280;11634;42.734;23.298;2023-06-22T15:08:55;54402.53;;;-139.56;100.00
22938;BME280;11634;42.734;23.298;2023-06-22T15:11:20;54402.53;;;-139.56;100.00
22938;BME280;11634;42.734;23.298;2023-06-22T15:13:46;54402.53;;;-139.56;100.00
22938;BME280;11634;42.734;23.298;2023-06-22T15:16:11;54402.53;;;-139.56;100.00
22938;BME280;11634;42.734;23.298;2023-06-22T15:18:37;54402.53;;;-139.56;100.00
22938;BME280;11634;42.734;23.298;2023-06-22T15:21:04;54402.53;;;-139.56;100.00
22938;BME280;11634;42.734;23.298;2023-06-22T15:23:30;54402.53;;;-139.56;100.00
22938;BME280;11634;42.734;23.298;2023-06-22T15:25:57;54402.53;;;-139.56;100.00
22938;BME280;11634;42.734;23.298;2023-06-22T15:28:23;54402.53;;;-139.56;100.00
22938;BME280;11634;42.734;23.298;2023-06-22T15:30:49;54402.53;;;-139.56;100.00
22938;BME280;11634;42.734;23.298;2023-06-22T15:33:15;54402.53;;;-139.56;100.00
22938;BME280;11634;42.734;23.298;2023-06-22T15:35:41;54402.53;;;-139.56;100.00
22938;BME280;11634;42.734;23.298;2023-06-22T15:38:08;54402.53;;;-139.56;100.00
22938;BME280;11634;42.734;23.298;2023-06-22T15:40:34;54402.53;;;-139.56;100.00
22938;BME280;11634;42.734;23.298;2023-06-22T15:43:00;54402.53;;;-139.56;100.00
22938;BME280;11634;42.734;23.298;2023-06-22T15:45:25;54402.53;;;-139.56;100.00
22938;BME280;11634;42.734;23.298;2023-06-22T15:47:51;54402.53;;;-139.56;100.00
22938;BME280;11634;42.734;23.298;2023-06-22T15:50:17;54402.53;;;-139.56;100.00
22938;BME280;11634;42.734;23.298;2023-06-22T15:52:43;54402.53;;;-139.56;100.00
22938;BME280;11634;42.734;23.298;2023-06-22T15:55:17;54402.53;;;-139.56;100.00
22938;BME280;11634;42.734;23.298;2023-06-22T15:57:43;54402.53;;;-139.56;100.00
22938;BME280;11634;42.734;23.298;2023-06-22T16:00:16;54402.53;;;-139.56;100.00
22938;BME280;11634;42.734;23.298;2023-06-22T16:02:45;54402.53;;;-139.56;100.00
22938;BME280;11634;42.734;23.298;2023-06-22T16:05:11;54402.53;;;-139.56;100.00
22938;BME280;11634;42.734;23.298;2023-06-22T16:07:37;54402.53;;;-139.56;100.00
22938;BME280;11634;42.734;23.298;2023-06-22T16:10:04;54402.53;;;-139.56;100.00
22938;BME280;11634;42.734;23.298;2023-06-22T16:12:30;54402.53;;;-139.56;100.00
22938;BME280;11634;42.734;23.298;2023-06-22T16:14:56;54402.53;;;-139.56;100.00
22938;BME280;11634;42.734;23.298;2023-06-22T16:17:22;54402.53;;;-139.56;100.00
22938;BME280;11634;42.734;23.298;2023-06-22T16:19:48;54402.53;;;-139.56;100.00
22938;BME280;11634;42.734;23.298;2023-06-22T16:22:13;54402.53;;;-139.56;100.00
22938;BME280;11634;42.734;23.298;2023-06-22T16:24:39;54402.53;;;-139.56;100.00
22938;BME280;11634;42.734;23.298;2023-06-22T16:27:05;54402.53;;;-139.56;100.00
22938;BME280;11634;42.734;23.298;2023-06-22T16:29:30;54402.53;;;-139.56;100.00
22938;BME280;11634;42.734;23.298;2023-06-22T16:31:56;54402.53;;;-139.56;100.00
22938;BME280;11634;42.734;23.298;2023-06-22T16:34:22;54402.53;;;-139.56;100.00
22938;BME280;11634;42.734;23.298;2023-06-22T16:36:47;54402.53;;;-139.56;100.00
22938;BME280;11634;42.734;23.298;2023-06-22T16:39:13;54402.53;;;-139.56;100.00
22938;BME280;11634;42.734;23.298;2023-06-22T16:41:39;54402.53;;;-139.56;100.00
22938;BME280;11634;42.734;23.298;2023-06-22T16:44:04;54402.53;;;-139.56;100.00
22938;BME280;11634;42.734;23.298;2023-06-22T16:46:33;54402.53;;;-139.56;100.00
22938;BME280;11634;42.734;23.298;2023-06-22T16:49:04;54402.53;;;-139.56;100.00
22938;BME280;11634;42.734;23.298;2023-06-22T16:51:30;54402.53;;;-139.56;100.00
22938;BME280;11634;42.734;23.298;2023-06-22T16:53:56;54402.53;;;-139.56;100.00
22938;BME280;11634;42.734;23.298;2023-06-22T16:56:27;54402.53;;;-139.56;100.00
22938;BME280;11634;42.734;23.298;2023-06-22T16:58:56;54402.53;;;-139.56;100.00
22938;BME280;11634;42.734;23.298;2023-06-22T17:01:23;54402.53;;;-139.56;100.00
22938;BME280;11634;42.734;23.298;2023-06-22T17:04:09;54402.53;;;-139.56;100.00
22938;BME280;11634;42.734;23.298;2023-06-22T17:06:42;54402.53;;;-139.56;100.00
22938;BME280;11634;42.734;23.298;2023-06-22T17:09:11;54402.53;;;-139.56;100.00
22938;BME280;11634;42.734;23.298;2023-06-22T17:11:43;54402.53;;;-139.56;100.00
22938;BME280;11634;42.734;23.298;2023-06-22T17:14:10;54402.53;;;-139.56;100.00
22938;BME280;11634;42.734;23.298;2023-06-22T17:16:41;54402.53;;;-139.56;100.00
22938;BME280;11634;42.734;23.298;2023-06-22T17:19:08;54402.53;;;-139.56;100.00
22938;BME280;11634;42.734;23.298;2023-06-22T17:21:34;54402.53;;;-139.56;100.00
22938;BME280;11634;42.734;23.298;2023-06-22T17:24:01;54402.53;;;-139.56;100.00
22938;BME280;11634;42.734;23.298;2023-06-22T17:26:30;54402.53;;;-139.56;100.00
22938;BME280;11634;42.734;23.298;2023-06-22T17:28:59;54402.53;;;-139.56;100.00
22938;BME280;11634;42.734;23.298;2023-06-22T17:31:44;54402.53;;;-139.56;100.00
22938;BME280;11634;42.734;23.298;2023-06-22T17:34:11;54402.53;;;-139.56;100.00
22938;BME280;11634;42.734;23.298;2023-06-22T17:37:04;54402.53;;;-139.56;100.00
22938;BME280;11634;42.734;23.298;2023-06-22T17:39:28;54402.53;;;-139.56;100.00
22938;BME280;11634;42.734;23.298;2023-06-22T17:41:54;54402.53;;;-139.56;100.00
22938;BME280;11634;42.734;23.298;2023-06-22T17:44:23;54402.53;;;-139.56;100.00
22938;BME280;11634;42.734;23.298;2023-06-22T17:46:56;54402.53;;;-139.56;100.00
22938;BME280;11634;42.734;23.298;2023-06-22T17:49:26;54402.53;;;-139.56;100.00
22938;BME280;11634;42.734;23.298;2023-06-22T17:51:52;54402.53;;;-139.56;100.00
22938;BME280;11634;42.734;23.298;2023-06-22T17:54:19;54402.53;;;-139.56;100.00
22938;BME280;11634;42.734;23.298;2023-06-22T17:56:50;54402.53;;;-139.56;100.00
22938;BME280;11634;42.734;23.298;2023-06-22T17:59:18;54402.53;;;-139.56;100.00
22938;BME280;11634;42.734;23.298;2023-06-22T18:01:44;54402.53;;;-139.56;100.00
22938;BME280;11634;42.734;23.298;2023-06-22T18:04:12;54402.53;;;-139.56;100.00
22938;BME280;11634;42.734;23.298;2023-06-22T18:06:50;54402.53;;;-139.56;100.00
22938;BME280;11634;42.734;23.298;2023-06-22T18:09:24;54402.53;;;-139.56;100.00
22938;BME280;11634;42.734;23.298;2023-06-22T18:11:53;54402.53;;;-139.56;100.00
22938;BME280;11634;42.734;23.298;2023-06-22T18:14:24;54402.53;;;-139.56;100.00
22938;BME280;11634;42.734;23.298;2023-06-22T18:16:50;54402.53;;;-139.56;100.00
22938;BME280;11634;42.734;23.298;2023-06-22T18:19:19;54402.53;;;-139.56;100.00
22938;BME280;11634;42.734;23.298;2023-06-22T18:21:46;54402.53;;;-139.56;100.00
22938;BME280;11634;42.734;23.298;2023-06-22T18:24:17;54402.53;;;-139.56;100.00
22938;BME280;11634;42.734;23.298;2023-06-22T18:26:44;54402.53;;;-139.56;100.00
22938;BME280;11634;42.734;23.298;2023-06-22T18:29:10;54402.53;;;-139.56;100.00
22938;BME280;11634;42.734;23.298;2023-06-22T18:31:39;54402.53;;;-139.56;100.00
22938;BME280;11634;42.734;23.298;2023-06-22T18:34:06;54402.53;;;-139.56;100.00
22938;BME280;11634;42.734;23.298;2023-06-22T18:36:53;54402.53;;;-139.56;100.00
22938;BME280;11634;42.734;23.298;2023-06-22T18:39:22;54402.53;;;-139.56;100.00
22938;BME280;11634;42.734;23.298;2023-06-22T18:41:59;54402.53;;;-139.56;100.00
22938;BME280;11634;42.734;23.298;2023-06-22T18:44:31;54402.53;;;-139.56;100.00
22938;BME280;11634;42.734;23.298;2023-06-22T18:47:01;54402.53;;;-139.56;100.00
22938;BME280;11634;42.734;23.298;2023-06-22T18:54:38;54402.53;;;-139.56;100.00
22938;BME280;11634;42.734;23.298;2023-06-22T18:57:27;54402.53;;;-139.56;100.00
22938;BME280;11634;42.734;23.298;2023-06-22T19:00:06;54402.53;;;-139.56;100.00
22938;BME280;11634;42.734;23.298;2023-06-22T19:02:45;54402.53;;;-139.56;100.00
22938;BME280;11634;42.734;23.298;2023-06-22T19:15:53;54402.53;;;-139.56;100.00
22938;BME280;11634;42.734;23.298;2023-06-22T19:18:20;54402.53;;;-139.56;100.00
22938;BME280;11634;42.734;23.298;2023-06-22T19:20:47;54402.53;;;-139.56;100.00
22938;BME280;11634;42.734;23.298;2023-06-22T19:23:32;54402.53;;;-139.56;100.00
22938;BME280;11634;42.734;23.298;2023-06-22T19:29:34;54402.53;;;-139.56;100.00
22938;BME280;11634;42.734;23.298;2023-06-22T19:31:38;54402.53;;;-139.56;100.00
22938;BME280;11634;42.734;23.298;2023-06-22T19:34:11;54402.53;;;-139.56;100.00
22938;BME280;11634;42.734;23.298;2023-06-22T19:36:41;54402.53;;;-139.56;100.00
22938;BME280;11634;42.734;23.298;2023-06-22T19:39:13;54402.53;;;-139.56;100.00
22938;BME280;11634;42.734;23.298;2023-06-22T19:41:39;54402.53;;;-139.56;100.00
22938;BME280;11634;42.734;23.298;2023-06-22T19:44:34;54402.53;;;-139.56;100.00
22938;BME280;11634;42.734;23.298;2023-06-22T19:47:02;54402.53;;;-139.56;100.00
22938;BME280;11634;42.734;23.298;2023-06-22T19:49:33;54402.53;;;-139.56;100.00
22938;BME280;11634;42.734;23.298;2023-06-22T19:52:06;54402.53;;;-139.56;100.00
22938;BME280;11634;42.734;23.298;2023-06-22T19:54:38;54402.53;;;-139.56;100.00
22938;BME280;11634;42.734;23.298;2023-06-22T19:57:08;54402.53;;;-139.56;100.00
22938;BME280;11634;42.734;23.298;2023-06-22T19:59:40;54402.53;;;-139.56;100.00
22938;BME280;11634;42.734;23.298;2023-06-22T20:02:10;54402.53;;;-139.56;100.00
22938;BME280;11634;42.734;23.298;2023-06-22T20:04:46;54402.53;;;-139.56;100.00
22938;BME280;11634;42.734;23.298;2023-06-22T20:07:37;54402.53;;;-139.56;100.00
22938;BME280;11634;42.734;23.298;2023-06-22T20:12:39;54402.53;;;-139.56;100.00
22938;BME280;11634;42.734;23.298;2023-06-22T20:15:20;54402.53;;;-139.56;100.00
22938;BME280;11634;42.734;23.298;2023-06-22T20:18:15;54402.53;;;-139.56;100.00
22938;BME280;11634;42.734;23.298;2023-06-22T20:20:49;54402.53;;;-139.56;100.00
22938;BME280;11634;42.734;23.298;2023-06-22T20:23:20;54402.53;;;-139.56;100.00
22938;BME280;11634;42.734;23.298;2023-06-22T20:25:49;54402.53;;;-139.56;100.00
22938;BME280;11634;42.734;23.298;2023-06-22T20:28:18;54402.53;;;-139.56;100.00
22938;BME280;11634;42.734;23.298;2023-06-22T20:33:32;54402.53;;;-139.56;100.00
22938;BME280;11634;42.734;23.298;2023-06-22T20:36:00;54402.53;;;-139.56;100.00
22938;BME280;11634;42.734;23.298;2023-06-22T20:38:27;54402.53;;;-139.56;100.00
22938;BME280;11634;42.734;23.298;2023-06-22T20:40:56;54402.53;;;-139.56;100.00
22938;BME280;11634;42.734;23.298;2023-06-22T20:43:23;54402.53;;;-139.56;100.00
22938;BME280;11634;42.734;23.298;2023-06-22T20:45:53;54402.53;;;-139.56;100.00
22938;BME280;11634;42.734;23.298;2023-06-22T20:48:21;54402.53;;;-139.56;100.00
22938;BME280;11634;42.734;23.298;2023-06-22T20:50:48;54402.53;;;-139.56;100.00
22938;BME280;11634;42.734;23.298;2023-06-22T20:53:17;54402.53;;;-139.56;100.00
22938;BME280;11634;42.734;23.298;2023-06-22T20:55:42;54402.53;;;-139.56;100.00
22938;BME280;11634;42.734;23.298;2023-06-22T20:58:11;54402.53;;;-139.56;100.00
22938;BME280;11634;42.734;23.298;2023-06-22T21:00:37;54402.53;;;-139.56;100.00
22938;BME280;11634;42.734;23.298;2023-06-22T21:03:07;54402.53;;;-139.56;100.00
22938;BME280;11634;42.734;23.298;2023-06-22T21:05:39;54402.53;;;-139.56;100.00
22938;BME280;11634;42.734;23.298;2023-06-22T21:08:05;54402.53;;;-139.56;100.00
22938;BME280;11634;42.734;23.298;2023-06-22T21:10:32;54402.53;;;-139.56;100.00
22938;BME280;11634;42.734;23.298;2023-06-22T21:12:57;54402.53;;;-139.56;100.00
22938;BME280;11634;42.734;23.298;2023-06-22T21:15:23;54402.53;;;-139.56;100.00
22938;BME280;11634;42.734;23.298;2023-06-22T21:17:49;54402.53;;;-139.56;100.00
22938;BME280;11634;42.734;23.298;2023-06-22T21:20:15;54402.53;;;-139.56;100.00
22938;BME280;11634;42.734;23.298;2023-06-22T21:22:41;54402.53;;;-139.56;100.00
22938;BME280;11634;42.734;23.298;2023-06-22T21:25:09;54402.53;;;-139.56;100.00
22938;BME280;11634;42.734;23.298;2023-06-22T21:27:36;54402.53;;;-139.56;100.00
22938;BME280;11634;42.734;23.298;2023-06-22T21:30:03;54402.53;;;-139.56;100.00
22938;BME280;11634;42.734;23.298;2023-06-22T21:32:29;54402.53;;;-139.56;100.00
22938;BME280;11634;42.734;23.298;2023-06-22T21:34:55;54402.53;;;-139.56;100.00
22938;BME280;11634;42.734;23.298;2023-06-22T21:37:20;54402.53;;;-139.56;100.00
22938;BME280;11634;42.734;23.298;2023-06-22T21:39:46;54402.53;;;-139.56;100.00
22938;BME280;11634;42.734;23.298;2023-06-22T21:42:12;54402.53;;;-139.56;100.00
22938;BME280;11634;42.734;23.298;2023-06-22T21:44:38;54402.53;;;-139.56;100.00
22938;BME280;11634;42.734;23.298;2023-06-22T21:47:04;54402.53;;;-139.56;100.00
22938;BME280;11634;42.734;23.298;2023-06-22T21:49:30;54402.53;;;-139.56;100.00
22938;BME280;11634;42.734;23.298;2023-06-22T21:51:57;54402.53;;;-139.56;100.00
22938;BME280;11634;42.734;23.298;2023-06-22T21:54:22;54402.53;;;-139.56;100.00
22938;BME280;11634;42.734;23.298;2023-06-22T21:56:48;54402.53;;;-139.56;100.00
22938;BME280;11634;42.734;23.298;2023-06-22T21:59:13;54402.53;;;-139.56;100.00
22938;BME280;11634;42.734;23.298;2023-06-22T22:01:39;54402.53;;;-139.56;100.00
22938;BME280;11634;42.734;23.298;2023-06-22T22:04:04;54402.53;;;-139.56;100.00
22938;BME280;11634;42.734;23.298;2023-06-22T22:06:32;54402.53;;;-139.56;100.00
22938;BME280;11634;42.734;23.298;2023-06-22T22:08:59;54402.53;;;-139.56;100.00
22938;BME280;11634;42.734;23.298;2023-06-22T22:11:25;54402.53;;;-139.56;100.00
22938;BME280;11634;42.734;23.298;2023-06-22T22:13:51;54402.53;;;-139.56;100.00
22938;BME280;11634;42.734;23.298;2023-06-22T22:16:18;54402.53;;;-139.56;100.00
22938;BME280;11634;42.734;23.298;2023-06-22T22:18:44;54402.53;;;-139.56;100.00
22938;BME280;11634;42.734;23.298;2023-06-22T22:21:12;54402.53;;;-139.56;100.00
22938;BME280;11634;42.734;23.298;2023-06-22T22:23:38;54402.53;;;-139.56;100.00
22938;BME280;11634;42.734;23.298;2023-06-22T22:26:06;54402.53;;;-139.56;100.00
22938;BME280;11634;42.734;23.298;2023-06-22T22:28:32;54402.53;;;-139.56;100.00
22938;BME280;11634;42.734;23.298;2023-06-22T22:30:59;54402.53;;;-139.56;100.00
22938;BME280;11634;42.734;23.298;2023-06-22T22:33:24;54402.53;;;-139.56;100.00
22938;BME280;11634;42.734;23.298;2023-06-22T22:35:50;54402.53;;;-139.56;100.00
22938;BME280;11634;42.734;23.298;2023-06-22T22:38:16;54402.53;;;-139.56;100.00
22938;BME280;11634;42.734;23.298;2023-06-22T22:40:42;54402.53;;;-139.56;100.00
22938;BME280;11634;42.734;23.298;2023-06-22T22:43:08;54402.53;;;-139.56;100.00
22938;BME280;11634;42.734;23.298;2023-06-22T22:45:33;54402.53;;;-139.56;100.00
22938;BME280;11634;42.734;23.298;2023-06-22T22:48:00;54402.53;;;-139.56;100.00
22938;BME280;11634;42.734;23.298;2023-06-22T22:50:26;54402.53;;;-139.56;100.00
22938;BME280;11634;42.734;23.298;2023-06-22T22:52:52;54402.53;;;-139.56;100.00
22938;BME280;11634;42.734;23.298;2023-06-22T22:55:18;54402.53;;;-139.56;100.00
22938;BME280;11634;42.734;23.298;2023-06-22T22:57:44;54402.53;;;-139.56;100.00
22938;BME280;11634;42.734;23.298;2023-06-22T23:00:11;54402.53;;;-139.56;100.00
22938;BME280;11634;42.734;23.298;2023-06-22T23:02:42;54402.53;;;-139.56;100.00
22938;BME280;11634;42.734;23.298;2023-06-22T23:05:09;54402.53;;;-139.56;100.00
22938;BME280;11634;42.734;23.298;2023-06-22T23:07:36;54402.53;;;-139.56;100.00
22938;BME280;11634;42.734;23.298;2023-06-22T23:10:04;54402.53;;;-139.56;100.00
22938;BME280;11634;42.734;23.298;2023-06-22T23:12:31;54402.53;;;-139.56;100.00
22938;BME280;11634;42.734;23.298;2023-06-22T23:14:57;54402.53;;;-139.56;100.00
22938;BME280;11634;42.734;23.298;2023-06-22T23:17:24;54402.53;;;-139.56;100.00
22938;BME280;11634;42.734;23.298;2023-06-22T23:19:50;54402.53;;;-139.56;100.00
22938;BME280;11634;42.734;23.298;2023-06-22T23:22:16;54402.53;;;-139.56;100.00
22938;BME280;11634;42.734;23.298;2023-06-22T23:24:42;54402.53;;;-139.56;100.00
22938;BME280;11634;42.734;23.298;2023-06-22T23:27:08;54402.53;;;-139.56;100.00
22938;BME280;11634;42.734;23.298;2023-06-22T23:29:34;54402.53;;;-139.56;100.00
22938;BME280;11634;42.734;23.298;2023-06-22T23:32:00;54402.53;;;-139.56;100.00
22938;BME280;11634;42.734;23.298;2023-06-22T23:34:26;54402.53;;;-139.56;100.00
22938;BME280;11634;42.734;23.298;2023-06-22T23:36:51;54402.53;;;-139.56;100.00
22938;BME280;11634;42.734;23.298;2023-06-22T23:39:17;54402.53;;;-139.56;100.00
22938;BME280;11634;42.734;23.298;2023-06-22T23:41:43;54402.53;;;-139.56;100.00
22938;BME280;11634;42.734;23.298;2023-06-22T23:44:09;54402.53;;;-139.56;100.00
22938;BME280;11634;42.734;23.298;2023-06-22T23:46:35;54402.53;;;-139.56;100.00
22938;BME280;11634;42.734;23.298;2023-06-22T23:49:01;54402.53;;;-139.56;100.00
22938;BME280;11634;42.734;23.298;2023-06-22T23:51:26;54402.53;;;-139.56;100.00
22938;BME280;11634;42.734;23.298;2023-06-22T23:53:56;54402.53;;;-139.56;100.00
22938;BME280;11634;42.734;23.298;2023-06-22T23:56:22;54402.53;;;-139.56;100.00
22938;BME280;11634;42.734;23.298;2023-06-22T23:58:52;54402.53;;;-139.56;100.00
